createdAt,value
2023-05-10T00:02:24.344Z,6.71
2023-05-10T00:07:27.477Z,6.64
2023-05-10T00:12:30.272Z,6.60
2023-05-10T00:17:33.100Z,6.56
2023-05-10T00:22:37.922Z,6.52
2023-05-10T00:27:40.640Z,6.49
2023-05-10T00:32:44.647Z,6.45
2023-05-10T00:37:47.471Z,6.41
2023-05-10T00:42:50.731Z,6.37
2023-05-10T00:47:56.249Z,6.32
2023-05-10T00:53:00.664Z,6.27
2023-05-10T00:58:03.463Z,6.22
2023-05-10T01:03:06.634Z,6.18
2023-05-10T01:08:09.899Z,6.14
2023-05-10T01:13:13.935Z,6.11
2023-05-10T01:18:21.240Z,6.07
2023-05-10T01:23:44.884Z,6.01
2023-05-10T01:29:02.751Z,5.95
2023-05-10T01:34:16.794Z,5.88
2023-05-10T01:39:29.649Z,5.80
2023-05-10T01:44:36.819Z,5.72
2023-05-10T01:49:47.848Z,5.64
2023-05-10T01:54:57.148Z,5.54
2023-05-10T02:00:02.262Z,5.46
2023-05-10T02:05:07.297Z,5.39
2023-05-10T02:10:12.837Z,5.35
2023-05-10T02:15:22.344Z,5.30
2023-05-10T02:20:26.699Z,5.26
2023-05-10T02:25:31.361Z,5.23
2023-05-10T02:30:36.227Z,7.19
2023-05-10T02:35:39.383Z,9.80
2023-05-10T02:40:43.639Z,8.76
2023-05-10T02:45:49.096Z,7.39
2023-05-10T02:50:53.534Z,6.64
2023-05-10T02:56:01.513Z,6.13
2023-05-10T03:01:04.640Z,5.77
2023-05-10T03:06:07.472Z,5.54
2023-05-10T03:11:34.900Z,5.40
2023-05-10T03:16:48.306Z,5.31
2023-05-10T03:21:53.756Z,5.26
2023-05-10T03:27:00.041Z,5.25
2023-05-10T03:32:03.283Z,5.27
2023-05-10T03:37:06.032Z,5.31
2023-05-10T03:42:08.897Z,5.37
2023-05-10T03:47:12.117Z,5.48
2023-05-10T03:52:15.429Z,5.58
2023-05-10T03:57:18.265Z,5.69
2023-05-10T04:02:21.109Z,5.82
2023-05-10T04:07:23.937Z,5.97
2023-05-10T04:12:26.749Z,6.14
2023-05-10T04:17:31.753Z,6.32
2023-05-10T04:22:34.631Z,6.53
2023-05-10T04:27:38.374Z,6.77
2023-05-10T04:32:41.283Z,8.01
2023-05-10T04:37:44.566Z,12.19
2023-05-10T04:42:47.631Z,16.21
2023-05-10T04:47:50.426Z,19.42
2023-05-10T04:52:53.414Z,21.73
2023-05-10T04:57:58.338Z,23.57
2023-05-10T05:03:01.240Z,23.24
2023-05-10T05:08:04.782Z,20.46
2023-05-10T05:13:07.785Z,18.11
2023-05-10T05:18:10.688Z,16.55
2023-05-10T05:23:13.750Z,15.46
2023-05-10T05:28:17.189Z,14.73
2023-05-10T05:33:20.485Z,14.33
2023-05-10T05:38:23.393Z,14.10
2023-05-10T05:43:26.320Z,13.96
2023-05-10T05:48:31.204Z,13.85
2023-05-10T05:53:34.924Z,13.84
2023-05-10T05:58:38.895Z,13.86
2023-05-10T06:03:42.612Z,13.93
2023-05-10T06:08:45.781Z,14.12
2023-05-10T06:14:01.189Z,14.36
2023-05-10T06:19:05.125Z,14.67
2023-05-10T06:24:08.564Z,15.09
2023-05-10T06:29:12.584Z,17.06
2023-05-10T06:34:15.478Z,21.27
2023-05-10T06:39:18.844Z,24.97
2023-05-10T06:44:22.549Z,27.62
2023-05-10T06:49:25.402Z,29.54
2023-05-10T06:54:28.521Z,30.70
2023-05-10T06:59:31.550Z,31.56
2023-05-10T07:04:35.402Z,32.55
2023-05-10T07:09:38.720Z,33.42
2023-05-10T07:14:43.637Z,33.58
2023-05-10T07:19:46.464Z,33.21
2023-05-10T07:24:49.585Z,31.88
2023-05-10T07:29:54.521Z,31.50
2023-05-10T07:34:57.468Z,31.81
2023-05-10T07:40:00.543Z,31.31
2023-05-10T07:45:03.650Z,31.52
2023-05-10T07:50:07.418Z,32.13
2023-05-10T07:55:11.874Z,31.82
2023-05-10T08:00:19.160Z,31.69
2023-05-10T08:05:22.349Z,31.44
2023-05-10T08:10:25.640Z,30.71
2023-05-10T08:15:28.432Z,29.99
2023-05-10T08:20:33.396Z,29.45
2023-05-10T08:25:36.470Z,29.55
2023-05-10T08:30:46.787Z,29.13
2023-05-10T08:35:50.061Z,28.50
2023-05-10T08:40:57.833Z,28.04
2023-05-10T08:46:06.692Z,27.48
2023-05-10T08:51:13.917Z,27.38
2023-05-10T08:56:18.719Z,27.37
2023-05-10T09:01:22.723Z,27.24
2023-05-10T09:06:25.832Z,27.43
2023-05-10T09:11:30.216Z,27.46
2023-05-10T09:16:33.140Z,27.30
2023-05-10T09:21:39.361Z,26.67
2023-05-10T09:26:53.512Z,24.46
2023-05-10T09:31:57.796Z,22.82
2023-05-10T09:37:03.878Z,21.92
2023-05-10T09:42:11.434Z,21.16
2023-05-10T09:47:19.485Z,20.52
2023-05-10T09:52:47.553Z,20.10
2023-05-10T09:57:59.744Z,20.03
2023-05-10T10:03:09.921Z,19.92
2023-05-10T10:08:16.469Z,19.71
2023-05-10T10:13:20.283Z,19.51
2023-05-10T10:18:28.145Z,19.33
2023-05-10T10:23:31.583Z,19.20
2023-05-10T10:29:01.490Z,19.24
2023-05-10T10:34:11.239Z,19.25
2023-05-10T10:39:25.096Z,19.29
2023-05-10T10:44:50.561Z,19.21
2023-05-10T10:50:05.274Z,19.15
2023-05-10T10:55:20.631Z,19.09
2023-05-10T11:00:38.087Z,19.05
2023-05-10T11:05:55.250Z,19.04
2023-05-10T11:11:12.076Z,19.13
2023-05-10T11:16:24.867Z,19.16
2023-05-10T11:21:28.454Z,19.10
2023-05-10T11:26:33.900Z,18.98
2023-05-10T11:31:43.510Z,18.88
2023-05-10T11:36:53.312Z,18.90
2023-05-10T11:41:58.212Z,18.92
2023-05-10T11:47:03.203Z,18.96
2023-05-10T11:52:21.457Z,19.01
2023-05-10T11:57:28.556Z,18.99
2023-05-10T12:02:37.616Z,18.98
2023-05-10T12:07:47.459Z,19.08
2023-05-10T12:12:53.711Z,19.11
2023-05-10T12:17:58.010Z,19.08
2023-05-10T12:23:04.712Z,19.08
2023-05-10T12:28:11.674Z,19.04
2023-05-10T12:33:17.650Z,19.06
2023-05-10T12:38:31.788Z,19.07
2023-05-10T12:43:36.390Z,19.05
2023-05-10T12:48:43.892Z,19.03
2023-05-10T12:53:49.692Z,19.07
2023-05-10T12:58:53.106Z,19.12
2023-05-10T13:03:56.701Z,19.14
2023-05-10T13:09:01.320Z,19.09
2023-05-10T13:14:05.929Z,19.11
2023-05-10T13:19:08.944Z,19.12
2023-05-10T13:24:15.054Z,19.14
2023-05-10T13:29:19.199Z,19.16
2023-05-10T13:34:22.134Z,19.20
2023-05-10T13:39:25.420Z,19.21
2023-05-10T13:44:28.366Z,19.20
2023-05-10T13:49:32.637Z,19.19
2023-05-10T13:54:35.557Z,19.17
2023-05-10T13:59:38.860Z,19.17
2023-05-10T14:04:42.092Z,19.11
2023-05-10T14:09:44.895Z,19.05
2023-05-10T14:14:47.752Z,19.00
2023-05-10T14:19:50.682Z,18.95
2023-05-10T14:24:56.179Z,18.91
2023-05-10T14:30:00.474Z,18.87
2023-05-10T14:35:12.207Z,18.83
2023-05-10T14:40:19.871Z,18.79
2023-05-10T14:45:25.073Z,18.76
2023-05-10T14:50:36.435Z,18.70
2023-05-10T14:55:42.328Z,18.66
2023-05-10T15:00:45.217Z,18.62
2023-05-10T15:05:48.809Z,18.54
2023-05-10T15:10:52.440Z,18.49
2023-05-10T15:15:56.008Z,18.47
2023-05-10T15:20:58.957Z,18.44
2023-05-10T15:26:04.238Z,18.38
2023-05-10T15:31:07.234Z,18.42
2023-05-10T15:36:10.093Z,19.32
2023-05-10T15:41:13.430Z,19.43
2023-05-10T15:46:16.274Z,19.05
2023-05-10T15:51:21.039Z,18.73
2023-05-10T15:56:25.154Z,18.50
2023-05-10T16:01:29.316Z,18.31
2023-05-10T16:06:35.771Z,18.18
2023-05-10T16:11:38.799Z,18.07
2023-05-10T16:16:41.967Z,17.96
2023-05-10T16:21:44.891Z,17.84
2023-05-10T16:26:48.656Z,17.71
2023-05-10T16:31:52.575Z,17.58
2023-05-10T16:36:55.410Z,17.46
2023-05-10T16:41:59.199Z,17.37
2023-05-10T16:47:04.223Z,17.28
2023-05-10T16:52:07.139Z,17.16
2023-05-10T16:57:09.966Z,17.05
2023-05-10T17:02:14.039Z,16.93
2023-05-10T17:07:19.095Z,16.83
2023-05-10T17:12:28.644Z,16.70
2023-05-10T17:17:33.546Z,16.57
2023-05-10T17:22:36.446Z,16.43
2023-05-10T17:27:39.677Z,16.29
2023-05-10T17:32:43.878Z,16.15
2023-05-10T17:43:16.247Z,15.84
2023-05-10T17:48:19.270Z,15.69
2023-05-10T17:53:22.120Z,15.54
2023-05-10T17:58:25.615Z,15.40
2023-05-10T18:03:29.809Z,15.24
2023-05-10T18:08:35.778Z,15.07
2023-05-10T18:13:42.554Z,14.93
2023-05-10T18:18:45.699Z,14.79
2023-05-10T18:23:49.117Z,14.62
2023-05-10T18:28:52.043Z,14.45
2023-05-10T18:33:54.994Z,14.29
2023-05-10T18:38:58.357Z,14.13
2023-05-10T18:44:01.770Z,13.96
2023-05-10T18:49:05.633Z,13.79
2023-05-10T18:54:08.577Z,13.62
2023-05-10T18:59:12.881Z,13.46
2023-05-10T19:04:15.952Z,13.28
2023-05-10T19:09:20.259Z,13.10
2023-05-10T19:14:25.166Z,12.93
2023-05-10T19:19:29.000Z,12.76
2023-05-10T19:24:36.199Z,12.60
2023-05-10T19:29:40.386Z,12.43
2023-05-10T19:34:44.801Z,12.27
2023-05-10T19:39:47.773Z,12.10
2023-05-10T19:44:52.082Z,11.96
2023-05-10T19:49:55.212Z,11.81
2023-05-10T19:54:58.318Z,11.67
2023-05-10T20:00:02.546Z,11.53
2023-05-10T20:05:05.770Z,11.40
2023-05-10T20:10:10.175Z,11.28
2023-05-10T20:15:14.219Z,11.16
2023-05-10T20:20:17.585Z,11.02
2023-05-10T20:25:22.223Z,10.90
2023-05-10T20:30:25.184Z,10.78
2023-05-10T20:35:27.983Z,10.67
2023-05-10T20:40:31.901Z,10.55
2023-05-10T20:45:37.485Z,10.41
2023-05-10T20:50:43.292Z,10.30
2023-05-10T20:55:46.077Z,10.19
2023-05-10T21:00:49.282Z,10.07
2023-05-10T21:05:52.047Z,9.96
2023-05-10T21:10:54.885Z,9.85
2023-05-10T21:15:57.755Z,9.72
2023-05-10T21:21:00.746Z,9.58
2023-05-10T21:26:04.351Z,9.46
2023-05-10T21:31:08.548Z,9.36
2023-05-10T21:36:11.779Z,9.27
2023-05-10T21:41:14.610Z,9.19
2023-05-10T21:46:17.632Z,9.13
2023-05-10T21:51:21.922Z,9.07
2023-05-10T21:56:24.721Z,8.99
2023-05-10T22:01:27.722Z,8.91
2023-05-10T22:06:31.103Z,8.83
2023-05-10T22:11:34.452Z,8.75
2023-05-10T22:16:37.342Z,8.69
2023-05-10T22:21:40.225Z,8.65
2023-05-10T22:26:43.031Z,8.60
2023-05-10T22:31:45.988Z,8.54
2023-05-10T22:36:50.639Z,8.48
2023-05-10T22:41:53.463Z,8.41
2023-05-10T22:46:56.481Z,8.35
2023-05-10T22:51:59.412Z,8.29
2023-05-10T22:57:02.294Z,8.21
2023-05-10T23:02:05.282Z,8.14
2023-05-10T23:07:08.221Z,8.05
2023-05-10T23:12:11.137Z,7.97
2023-05-10T23:17:13.969Z,7.89
2023-05-10T23:22:17.133Z,7.81
2023-05-10T23:27:19.943Z,7.75
2023-05-10T23:32:23.452Z,7.68
2023-05-10T23:37:26.275Z,7.61
2023-05-10T23:42:29.083Z,7.53
2023-05-10T23:47:31.942Z,7.46
2023-05-10T23:52:34.797Z,7.41
2023-05-10T23:57:37.979Z,7.35
